sensor_id;sensor_type;location;lat;lon;timestamp;temperature;humidity
18868;DHT22;9563;49.240;9.088;2023-06-22T04:01:02;19.20;99.90
18868;DHT22;9563;49.240;9.088;2023-06-22T04:03:29;19.30;99.90
18868;DHT22;9563;49.240;9.088;2023-06-22T04:05:56;19.30;99.90
18868;DHT22;9563;49.240;9.088;2023-06-22T04:08:22;19.30;99.90
18868;DHT22;9563;49.240;9.088;2023-06-22T04:10:49;19.30;99.90
18868;DHT22;9563;49.240;9.088;2023-06-22T04:13:16;19.30;99.90
18868;DHT22;9563;49.240;9.088;2023-06-22T04:15:43;19.30;99.90
18868;DHT22;9563;49.240;9.088;2023-06-22T04:18:11;19.30;99.90
18868;DHT22;9563;49.240;9.088;2023-06-22T04:20:38;19.30;99.90
18868;DHT22;9563;49.240;9.088;2023-06-22T04:23:05;19.30;99.90
18868;DHT22;9563;49.240;9.088;2023-06-22T04:25:32;19.30;99.90
18868;DHT22;9563;49.240;9.088;2023-06-22T04:27:59;19.30;99.90
18868;DHT22;9563;49.240;9.088;2023-06-22T04:30:28;19.30;99.90
18868;DHT22;9563;49.240;9.088;2023-06-22T04:32:57;19.30;99.90
18868;DHT22;9563;49.240;9.088;2023-06-22T04:35:25;19.30;99.90
18868;DHT22;9563;49.240;9.088;2023-06-22T04:37:55;19.40;99.90
18868;DHT22;9563;49.240;9.088;2023-06-22T04:40:23;19.40;99.90
18868;DHT22;9563;49.240;9.088;2023-06-22T04:42:50;19.40;99.90
18868;DHT22;9563;49.240;9.088;2023-06-22T04:45:19;19.50;99.90
18868;DHT22;9563;49.240;9.088;2023-06-22T04:47:46;19.50;99.90
18868;DHT22;9563;49.240;9.088;2023-06-22T04:50:13;19.50;99.90
18868;DHT22;9563;49.240;9.088;2023-06-22T04:52:41;19.50;99.90
18868;DHT22;9563;49.240;9.088;2023-06-22T04:55:08;19.60;99.90
18868;DHT22;9563;49.240;9.088;2023-06-22T04:57:35;19.70;99.90
18868;DHT22;9563;49.240;9.088;2023-06-22T05:00:05;19.70;99.90
18868;DHT22;9563;49.240;9.088;2023-06-22T05:02:38;19.70;99.90
18868;DHT22;9563;49.240;9.088;2023-06-22T05:05:05;19.80;99.90
18868;DHT22;9563;49.240;9.088;2023-06-22T05:07:33;19.80;99.90
18868;DHT22;9563;49.240;9.088;2023-06-22T05:10:01;19.90;99.90
18868;DHT22;9563;49.240;9.088;2023-06-22T05:12:29;20.00;99.90
18868;DHT22;9563;49.240;9.088;2023-06-22T05:14:56;20.10;99.90
18868;DHT22;9563;49.240;9.088;2023-06-22T05:17:23;20.10;99.90
18868;DHT22;9563;49.240;9.088;2023-06-22T05:19:50;20.20;99.90
18868;DHT22;9563;49.240;9.088;2023-06-22T05:22:18;20.30;99.90
18868;DHT22;9563;49.240;9.088;2023-06-22T05:24:46;20.30;99.90
18868;DHT22;9563;49.240;9.088;2023-06-22T05:27:14;20.40;99.90
18868;DHT22;9563;49.240;9.088;2023-06-22T05:29:41;20.40;99.90
18868;DHT22;9563;49.240;9.088;2023-06-22T05:32:09;20.50;99.90
18868;DHT22;9563;49.240;9.088;2023-06-22T05:34:36;20.60;99.90
18868;DHT22;9563;49.240;9.088;2023-06-22T05:37:04;20.60;99.90
18868;DHT22;9563;49.240;9.088;2023-06-22T05:39:31;20.70;99.90
18868;DHT22;9563;49.240;9.088;2023-06-22T05:41:58;20.80;99.90
18868;DHT22;9563;49.240;9.088;2023-06-22T05:44:26;20.80;99.90
18868;DHT22;9563;49.240;9.088;2023-06-22T05:46:53;20.90;99.90
18868;DHT22;9563;49.240;9.088;2023-06-22T05:49:20;21.00;99.90
18868;DHT22;9563;49.240;9.088;2023-06-22T05:51:48;21.10;99.90
18868;DHT22;9563;49.240;9.088;2023-06-22T05:54:14;21.20;99.90
18868;DHT22;9563;49.240;9.088;2023-06-22T05:56:43;21.30;99.90
18868;DHT22;9563;49.240;9.088;2023-06-22T05:59:10;21.40;99.90
18868;DHT22;9563;49.240;9.088;2023-06-22T06:01:39;21.50;99.90
18868;DHT22;9563;49.240;9.088;2023-06-22T06:04:06;21.50;99.90
18868;DHT22;9563;49.240;9.088;2023-06-22T06:06:33;21.60;99.90
18868;DHT22;9563;49.240;9.088;2023-06-22T06:09:02;21.70;99.90
18868;DHT22;9563;49.240;9.088;2023-06-22T06:11:29;21.80;99.90
18868;DHT22;9563;49.240;9.088;2023-06-22T06:13:56;21.90;99.90
18868;DHT22;9563;49.240;9.088;2023-06-22T06:16:23;22.00;99.90
18868;DHT22;9563;49.240;9.088;2023-06-22T06:18:51;22.00;99.90
18868;DHT22;9563;49.240;9.088;2023-06-22T06:21:20;22.10;99.90
18868;DHT22;9563;49.240;9.088;2023-06-22T06:23:47;22.20;99.90
18868;DHT22;9563;49.240;9.088;2023-06-22T06:26:14;22.30;99.90
18868;DHT22;9563;49.240;9.088;2023-06-22T06:28:42;22.40;99.90
18868;DHT22;9563;49.240;9.088;2023-06-22T06:31:09;22.40;99.90
18868;DHT22;9563;49.240;9.088;2023-06-22T06:33:37;22.50;99.90
18868;DHT22;9563;49.240;9.088;2023-06-22T06:36:06;22.50;99.90
18868;DHT22;9563;49.240;9.088;2023-06-22T06:38:33;22.50;99.90
18868;DHT22;9563;49.240;9.088;2023-06-22T06:41:00;22.60;99.90
18868;DHT22;9563;49.240;9.088;2023-06-22T06:43:27;22.60;99.90
18868;DHT22;9563;49.240;9.088;2023-06-22T06:45:54;22.70;99.90
18868;DHT22;9563;49.240;9.088;2023-06-22T06:48:21;22.80;99.90
18868;DHT22;9563;49.240;9.088;2023-06-22T06:50:48;22.90;99.90
18868;DHT22;9563;49.240;9.088;2023-06-22T06:53:16;23.00;99.90
18868;DHT22;9563;49.240;9.088;2023-06-22T06:55:43;23.10;99.90
18868;DHT22;9563;49.240;9.088;2023-06-22T06:58:11;23.30;99.90
18868;DHT22;9563;49.240;9.088;2023-06-22T07:00:39;23.40;99.90
18868;DHT22;9563;49.240;9.088;2023-06-22T07:03:06;23.50;99.90
18868;DHT22;9563;49.240;9.088;2023-06-22T07:05:33;23.60;99.90
18868;DHT22;9563;49.240;9.088;2023-06-22T07:08:00;23.60;99.90
18868;DHT22;9563;49.240;9.088;2023-06-22T07:10:29;23.70;99.90
18868;DHT22;9563;49.240;9.088;2023-06-22T07:12:56;23.90;99.90
18868;DHT22;9563;49.240;9.088;2023-06-22T07:15:23;24.00;99.90
18868;DHT22;9563;49.240;9.088;2023-06-22T07:17:50;24.10;99.90
18868;DHT22;9563;49.240;9.088;2023-06-22T07:20:17;24.10;99.90
18868;DHT22;9563;49.240;9.088;2023-06-22T07:22:45;24.30;99.90
18868;DHT22;9563;49.240;9.088;2023-06-22T07:25:12;24.40;99.90
18868;DHT22;9563;49.240;9.088;2023-06-22T07:27:46;24.60;99.90
18868;DHT22;9563;49.240;9.088;2023-06-22T07:30:22;24.70;99.90
18868;DHT22;9563;49.240;9.088;2023-06-22T07:32:49;24.80;99.90
18868;DHT22;9563;49.240;9.088;2023-06-22T07:35:16;24.90;99.90
18868;DHT22;9563;49.240;9.088;2023-06-22T07:37:43;25.10;99.90
18868;DHT22;9563;49.240;9.088;2023-06-22T07:40:11;25.20;99.90
18868;DHT22;9563;49.240;9.088;2023-06-22T07:42:38;25.30;99.90
18868;DHT22;9563;49.240;9.088;2023-06-22T07:45:08;25.30;99.90
18868;DHT22;9563;49.240;9.088;2023-06-22T07:47:35;25.50;99.90
18868;DHT22;9563;49.240;9.088;2023-06-22T07:50:02;25.60;99.90
18868;DHT22;9563;49.240;9.088;2023-06-22T07:52:32;25.80;99.90
18868;DHT22;9563;49.240;9.088;2023-06-22T07:54:58;25.90;99.90
18868;DHT22;9563;49.240;9.088;2023-06-22T07:57:26;26.20;99.90
18868;DHT22;9563;49.240;9.088;2023-06-22T07:59:59;26.30;99.90
18868;DHT22;9563;49.240;9.088;2023-06-22T08:02:27;26.30;99.90
18868;DHT22;9563;49.240;9.088;2023-06-22T08:04:54;26.40;99.90
18868;DHT22;9563;49.240;9.088;2023-06-22T08:07:21;26.50;99.90
18868;DHT22;9563;49.240;9.088;2023-06-22T08:09:48;26.70;99.90
18868;DHT22;9563;49.240;9.088;2023-06-22T08:12:15;26.90;99.90
18868;DHT22;9563;49.240;9.088;2023-06-22T08:14:43;27.00;99.90
18868;DHT22;9563;49.240;9.088;2023-06-22T08:17:11;27.10;99.90
18868;DHT22;9563;49.240;9.088;2023-06-22T08:19:40;27.30;99.90
18868;DHT22;9563;49.240;9.088;2023-06-22T08:22:07;27.50;99.90
18868;DHT22;9563;49.240;9.088;2023-06-22T08:24:34;27.50;99.90
18868;DHT22;9563;49.240;9.088;2023-06-22T08:27:01;27.70;99.90
18868;DHT22;9563;49.240;9.088;2023-06-22T08:29:28;27.80;99.90
18868;DHT22;9563;49.240;9.088;2023-06-22T08:31:54;27.90;99.90
18868;DHT22;9563;49.240;9.088;2023-06-22T08:34:21;28.00;99.90
18868;DHT22;9563;49.240;9.088;2023-06-22T08:36:50;28.20;99.90
18868;DHT22;9563;49.240;9.088;2023-06-22T08:39:18;28.20;99.90
18868;DHT22;9563;49.240;9.088;2023-06-22T08:41:45;28.40;99.90
18868;DHT22;9563;49.240;9.088;2023-06-22T08:44:12;28.60;99.90
18868;DHT22;9563;49.240;9.088;2023-06-22T08:46:39;28.60;99.90
18868;DHT22;9563;49.240;9.088;2023-06-22T08:49:07;28.80;99.90
18868;DHT22;9563;49.240;9.088;2023-06-22T08:51:35;28.80;99.90
18868;DHT22;9563;49.240;9.088;2023-06-22T08:54:03;29.00;99.90
18868;DHT22;9563;49.240;9.088;2023-06-22T08:56:30;29.20;99.90
18868;DHT22;9563;49.240;9.088;2023-06-22T08:58:57;29.40;99.90
18868;DHT22;9563;49.240;9.088;2023-06-22T09:01:24;29.70;99.90
18868;DHT22;9563;49.240;9.088;2023-06-22T09:03:51;29.70;99.90
18868;DHT22;9563;49.240;9.088;2023-06-22T09:06:21;29.60;99.90
18868;DHT22;9563;49.240;9.088;2023-06-22T09:08:48;29.30;99.90
18868;DHT22;9563;49.240;9.088;2023-06-22T09:11:16;28.90;99.90
18868;DHT22;9563;49.240;9.088;2023-06-22T09:13:43;28.60;99.90
18868;DHT22;9563;49.240;9.088;2023-06-22T09:16:11;28.30;99.90
18868;DHT22;9563;49.240;9.088;2023-06-22T09:18:38;27.90;99.90
18868;DHT22;9563;49.240;9.088;2023-06-22T09:21:05;27.70;99.90
18868;DHT22;9563;49.240;9.088;2023-06-22T09:23:33;27.40;99.90
18868;DHT22;9563;49.240;9.088;2023-06-22T09:26:00;27.40;99.90
18868;DHT22;9563;49.240;9.088;2023-06-22T09:28:28;27.40;99.90
18868;DHT22;9563;49.240;9.088;2023-06-22T09:30:55;27.40;99.90
18868;DHT22;9563;49.240;9.088;2023-06-22T09:33:23;27.50;99.90
18868;DHT22;9563;49.240;9.088;2023-06-22T09:35:50;27.70;99.90
18868;DHT22;9563;49.240;9.088;2023-06-22T09:38:17;28.00;99.90
18868;DHT22;9563;49.240;9.088;2023-06-22T09:40:44;28.40;99.90
18868;DHT22;9563;49.240;9.088;2023-06-22T09:43:11;28.70;99.90
18868;DHT22;9563;49.240;9.088;2023-06-22T09:45:39;28.70;99.90
18868;DHT22;9563;49.240;9.088;2023-06-22T09:48:06;28.70;99.90
18868;DHT22;9563;49.240;9.088;2023-06-22T09:50:35;28.90;99.90
18868;DHT22;9563;49.240;9.088;2023-06-22T09:53:02;29.20;99.90
18868;DHT22;9563;49.240;9.088;2023-06-22T09:55:29;29.60;99.90
18868;DHT22;9563;49.240;9.088;2023-06-22T09:57:56;29.70;99.90
18868;DHT22;9563;49.240;9.088;2023-06-22T10:00:23;30.00;99.90
18868;DHT22;9563;49.240;9.088;2023-06-22T10:02:53;30.30;99.90
18868;DHT22;9563;49.240;9.088;2023-06-22T10:05:21;30.50;99.90
18868;DHT22;9563;49.240;9.088;2023-06-22T10:07:48;30.80;99.90
18868;DHT22;9563;49.240;9.088;2023-06-22T10:10:15;30.80;99.90
18868;DHT22;9563;49.240;9.088;2023-06-22T10:12:46;30.80;99.90
18868;DHT22;9563;49.240;9.088;2023-06-22T10:15:14;30.70;99.90
18868;DHT22;9563;49.240;9.088;2023-06-22T10:17:41;30.70;99.90
18868;DHT22;9563;49.240;9.088;2023-06-22T10:20:10;30.60;99.90
18868;DHT22;9563;49.240;9.088;2023-06-22T10:22:38;30.50;99.90
18868;DHT22;9563;49.240;9.088;2023-06-22T10:25:06;30.40;99.90
18868;DHT22;9563;49.240;9.088;2023-06-22T10:27:33;30.40;99.90
18868;DHT22;9563;49.240;9.088;2023-06-22T10:30:00;30.70;99.90
18868;DHT22;9563;49.240;9.088;2023-06-22T10:32:27;30.90;99.90
18868;DHT22;9563;49.240;9.088;2023-06-22T10:34:55;31.10;99.90
18868;DHT22;9563;49.240;9.088;2023-06-22T10:37:23;31.30;99.90
18868;DHT22;9563;49.240;9.088;2023-06-22T10:39:50;31.30;99.90
18868;DHT22;9563;49.240;9.088;2023-06-22T10:42:17;31.10;99.90
18868;DHT22;9563;49.240;9.088;2023-06-22T10:44:44;30.90;99.90
18868;DHT22;9563;49.240;9.088;2023-06-22T10:47:11;30.70;99.90
18868;DHT22;9563;49.240;9.088;2023-06-22T10:49:38;30.40;99.90
18868;DHT22;9563;49.240;9.088;2023-06-22T10:52:06;30.20;99.90
18868;DHT22;9563;49.240;9.088;2023-06-22T10:54:35;30.10;99.90
18868;DHT22;9563;49.240;9.088;2023-06-22T10:57:03;29.70;99.90
18868;DHT22;9563;49.240;9.088;2023-06-22T10:59:30;29.60;99.90
18868;DHT22;9563;49.240;9.088;2023-06-22T11:01:57;29.50;99.90
18868;DHT22;9563;49.240;9.088;2023-06-22T11:04:25;29.70;99.90
18868;DHT22;9563;49.240;9.088;2023-06-22T11:06:52;29.90;99.90
18868;DHT22;9563;49.240;9.088;2023-06-22T11:09:19;30.20;99.90
18868;DHT22;9563;49.240;9.088;2023-06-22T11:11:48;30.40;99.90
18868;DHT22;9563;49.240;9.088;2023-06-22T11:14:16;30.40;99.90
18868;DHT22;9563;49.240;9.088;2023-06-22T11:16:43;30.20;99.90
18868;DHT22;9563;49.240;9.088;2023-06-22T11:19:10;30.00;99.90
18868;DHT22;9563;49.240;9.088;2023-06-22T11:21:36;29.90;99.90
18868;DHT22;9563;49.240;9.088;2023-06-22T11:24:04;29.60;99.90
18868;DHT22;9563;49.240;9.088;2023-06-22T11:26:31;29.40;99.90
18868;DHT22;9563;49.240;9.088;2023-06-22T11:28:59;29.30;99.90
18868;DHT22;9563;49.240;9.088;2023-06-22T11:31:26;29.20;99.90
18868;DHT22;9563;49.240;9.088;2023-06-22T11:33:53;29.20;99.90
18868;DHT22;9563;49.240;9.088;2023-06-22T11:36:20;29.20;99.90
18868;DHT22;9563;49.240;9.088;2023-06-22T11:38:47;29.20;99.90
18868;DHT22;9563;49.240;9.088;2023-06-22T11:41:14;29.20;99.90
18868;DHT22;9563;49.240;9.088;2023-06-22T11:43:41;29.20;99.90
18868;DHT22;9563;49.240;9.088;2023-06-22T11:46:10;29.30;99.90
18868;DHT22;9563;49.240;9.088;2023-06-22T11:48:37;29.50;99.90
18868;DHT22;9563;49.240;9.088;2023-06-22T11:51:04;29.70;99.90
18868;DHT22;9563;49.240;9.088;2023-06-22T11:53:32;29.70;99.90
18868;DHT22;9563;49.240;9.088;2023-06-22T11:56:00;29.80;99.90
18868;DHT22;9563;49.240;9.088;2023-06-22T11:58:27;29.90;99.90
18868;DHT22;9563;49.240;9.088;2023-06-22T12:00:54;29.90;99.90
18868;DHT22;9563;49.240;9.088;2023-06-22T12:03:22;29.90;99.90
18868;DHT22;9563;49.240;9.088;2023-06-22T12:05:50;29.80;99.90
18868;DHT22;9563;49.240;9.088;2023-06-22T12:08:17;29.60;99.90
18868;DHT22;9563;49.240;9.088;2023-06-22T12:10:44;29.40;99.90
18868;DHT22;9563;49.240;9.088;2023-06-22T12:13:11;29.20;99.90
18868;DHT22;9563;49.240;9.088;2023-06-22T12:15:38;29.00;99.90
18868;DHT22;9563;49.240;9.088;2023-06-22T12:18:05;28.90;99.90
18868;DHT22;9563;49.240;9.088;2023-06-22T12:20:33;28.80;99.90
18868;DHT22;9563;49.240;9.088;2023-06-22T12:23:01;28.70;99.90
18868;DHT22;9563;49.240;9.088;2023-06-22T12:25:28;28.70;99.90
18868;DHT22;9563;49.240;9.088;2023-06-22T12:27:55;28.50;99.90
18868;DHT22;9563;49.240;9.088;2023-06-22T12:30:21;28.50;99.90
18868;DHT22;9563;49.240;9.088;2023-06-22T12:32:48;28.40;99.90
18868;DHT22;9563;49.240;9.088;2023-06-22T12:35:16;28.30;99.90
18868;DHT22;9563;49.240;9.088;2023-06-22T12:37:45;28.30;99.90
18868;DHT22;9563;49.240;9.088;2023-06-22T12:40:12;28.20;99.90
18868;DHT22;9563;49.240;9.088;2023-06-22T12:42:40;28.20;99.90
18868;DHT22;9563;49.240;9.088;2023-06-22T12:45:08;28.30;99.90
18868;DHT22;9563;49.240;9.088;2023-06-22T12:47:35;28.20;99.90
18868;DHT22;9563;49.240;9.088;2023-06-22T12:50:03;28.30;99.90
18868;DHT22;9563;49.240;9.088;2023-06-22T12:52:30;28.40;99.90
18868;DHT22;9563;49.240;9.088;2023-06-22T12:54:59;28.50;99.90
18868;DHT22;9563;49.240;9.088;2023-06-22T12:57:26;28.70;99.90
18868;DHT22;9563;49.240;9.088;2023-06-22T12:59:53;28.90;99.90
18868;DHT22;9563;49.240;9.088;2023-06-22T13:02:20;29.00;99.90
18868;DHT22;9563;49.240;9.088;2023-06-22T13:04:46;29.10;99.90
18868;DHT22;9563;49.240;9.088;2023-06-22T13:07:13;29.20;99.90
18868;DHT22;9563;49.240;9.088;2023-06-22T13:09:40;29.30;99.90
18868;DHT22;9563;49.240;9.088;2023-06-22T13:12:09;29.40;99.90
18868;DHT22;9563;49.240;9.088;2023-06-22T13:14:36;29.50;99.90
18868;DHT22;9563;49.240;9.088;2023-06-22T13:17:04;29.70;99.90
18868;DHT22;9563;49.240;9.088;2023-06-22T13:19:31;29.70;99.90
18868;DHT22;9563;49.240;9.088;2023-06-22T13:21:58;29.70;99.90
18868;DHT22;9563;49.240;9.088;2023-06-22T13:24:25;29.70;99.90
18868;DHT22;9563;49.240;9.088;2023-06-22T13:26:52;29.70;99.90
18868;DHT22;9563;49.240;9.088;2023-06-22T13:29:21;29.70;99.90
18868;DHT22;9563;49.240;9.088;2023-06-22T13:31:48;29.60;99.90
18868;DHT22;9563;49.240;9.088;2023-06-22T13:34:15;29.50;99.90
18868;DHT22;9563;49.240;9.088;2023-06-22T13:36:42;29.40;99.90
18868;DHT22;9563;49.240;9.088;2023-06-22T13:39:09;29.40;99.90
18868;DHT22;9563;49.240;9.088;2023-06-22T13:41:35;29.40;99.90
18868;DHT22;9563;49.240;9.088;2023-06-22T13:44:03;29.50;99.90
18868;DHT22;9563;49.240;9.088;2023-06-22T13:46:31;29.60;99.90
18868;DHT22;9563;49.240;9.088;2023-06-22T13:48:58;29.70;99.90
18868;DHT22;9563;49.240;9.088;2023-06-22T13:51:24;29.80;99.90
18868;DHT22;9563;49.240;9.088;2023-06-22T13:53:51;29.90;99.90
18868;DHT22;9563;49.240;9.088;2023-06-22T13:56:18;30.00;99.90
18868;DHT22;9563;49.240;9.088;2023-06-22T13:58:45;30.30;99.90
18868;DHT22;9563;49.240;9.088;2023-06-22T14:01:12;30.40;99.90
18868;DHT22;9563;49.240;9.088;2023-06-22T14:03:40;30.40;99.90
18868;DHT22;9563;49.240;9.088;2023-06-22T14:06:07;30.40;99.90
18868;DHT22;9563;49.240;9.088;2023-06-22T14:08:37;30.60;99.90
18868;DHT22;9563;49.240;9.088;2023-06-22T14:11:04;30.70;99.90
18868;DHT22;9563;49.240;9.088;2023-06-22T14:13:30;30.90;99.90
18868;DHT22;9563;49.240;9.088;2023-06-22T14:15:57;31.00;99.90
18868;DHT22;9563;49.240;9.088;2023-06-22T14:18:24;31.20;99.90
18868;DHT22;9563;49.240;9.088;2023-06-22T14:20:52;31.50;99.90
18868;DHT22;9563;49.240;9.088;2023-06-22T14:23:19;31.60;99.90
18868;DHT22;9563;49.240;9.088;2023-06-22T14:25:46;31.50;99.90
18868;DHT22;9563;49.240;9.088;2023-06-22T14:28:13;31.50;99.90
18868;DHT22;9563;49.240;9.088;2023-06-22T14:30:41;31.70;99.90
18868;DHT22;9563;49.240;9.088;2023-06-22T14:33:08;31.80;99.90
18868;DHT22;9563;49.240;9.088;2023-06-22T14:35:35;31.90;99.90
18868;DHT22;9563;49.240;9.088;2023-06-22T14:38:04;31.90;99.90
18868;DHT22;9563;49.240;9.088;2023-06-22T14:40:31;31.80;99.90
18868;DHT22;9563;49.240;9.088;2023-06-22T14:42:58;31.50;99.90
18868;DHT22;9563;49.240;9.088;2023-06-22T14:45:25;31.20;99.90
18868;DHT22;9563;49.240;9.088;2023-06-22T14:47:52;31.10;99.90
18868;DHT22;9563;49.240;9.088;2023-06-22T14:50:19;30.90;99.90
18868;DHT22;9563;49.240;9.088;2023-06-22T14:52:46;30.70;99.90
18868;DHT22;9563;49.240;9.088;2023-06-22T14:55:14;30.50;99.90
18868;DHT22;9563;49.240;9.088;2023-06-22T14:57:41;30.40;99.90
18868;DHT22;9563;49.240;9.088;2023-06-22T15:00:08;30.10;99.90
18868;DHT22;9563;49.240;9.088;2023-06-22T15:02:35;29.90;99.90
18868;DHT22;9563;49.240;9.088;2023-06-22T15:05:02;29.70;99.90
18868;DHT22;9563;49.240;9.088;2023-06-22T15:07:29;29.60;99.90
18868;DHT22;9563;49.240;9.088;2023-06-22T15:09:56;29.40;99.90
18868;DHT22;9563;49.240;9.088;2023-06-22T15:12:25;29.30;99.90
18868;DHT22;9563;49.240;9.088;2023-06-22T15:14:51;29.20;99.90
18868;DHT22;9563;49.240;9.088;2023-06-22T15:17:18;29.10;99.90
18868;DHT22;9563;49.240;9.088;2023-06-22T15:19:45;29.00;99.90
18868;DHT22;9563;49.240;9.088;2023-06-22T15:22:12;28.90;99.90
18868;DHT22;9563;49.240;9.088;2023-06-22T15:24:42;28.90;99.90
18868;DHT22;9563;49.240;9.088;2023-06-22T15:27:10;28.90;99.90
18868;DHT22;9563;49.240;9.088;2023-06-22T15:29:38;29.10;99.90
18868;DHT22;9563;49.240;9.088;2023-06-22T15:32:06;29.30;99.90
18868;DHT22;9563;49.240;9.088;2023-06-22T15:34:33;29.50;99.90
18868;DHT22;9563;49.240;9.088;2023-06-22T15:36:59;29.70;99.90
18868;DHT22;9563;49.240;9.088;2023-06-22T15:39:26;29.80;99.90
18868;DHT22;9563;49.240;9.088;2023-06-22T15:41:53;29.90;99.90
18868;DHT22;9563;49.240;9.088;2023-06-22T15:44:20;29.90;99.90
18868;DHT22;9563;49.240;9.088;2023-06-22T15:46:49;30.00;99.90
18868;DHT22;9563;49.240;9.088;2023-06-22T15:49:16;30.00;99.90
18868;DHT22;9563;49.240;9.088;2023-06-22T15:51:43;30.00;99.90
18868;DHT22;9563;49.240;9.088;2023-06-22T15:54:10;29.80;99.90
18868;DHT22;9563;49.240;9.088;2023-06-22T15:56:37;29.60;99.90
18868;DHT22;9563;49.240;9.088;2023-06-22T15:59:04;29.60;99.90
18868;DHT22;9563;49.240;9.088;2023-06-22T16:01:31;29.60;99.90
18868;DHT22;9563;49.240;9.088;2023-06-22T16:03:59;29.70;99.90
18868;DHT22;9563;49.240;9.088;2023-06-22T16:06:28;29.70;99.90
18868;DHT22;9563;49.240;9.088;2023-06-22T16:08:55;29.70;99.90
18868;DHT22;9563;49.240;9.088;2023-06-22T16:11:22;29.80;99.90
18868;DHT22;9563;49.240;9.088;2023-06-22T16:13:49;29.80;99.90
18868;DHT22;9563;49.240;9.088;2023-06-22T16:16:16;29.70;99.90
18868;DHT22;9563;49.240;9.088;2023-06-22T16:18:43;29.50;99.90
18868;DHT22;9563;49.240;9.088;2023-06-22T16:21:12;29.30;99.90
18868;DHT22;9563;49.240;9.088;2023-06-22T16:23:39;29.10;99.90
18868;DHT22;9563;49.240;9.088;2023-06-22T16:26:06;28.90;99.90
18868;DHT22;9563;49.240;9.088;2023-06-22T16:28:33;28.80;99.90
18868;DHT22;9563;49.240;9.088;2023-06-22T16:31:00;28.70;99.90
18868;DHT22;9563;49.240;9.088;2023-06-22T16:33:27;28.50;99.90
18868;DHT22;9563;49.240;9.088;2023-06-22T16:35:53;28.40;99.90
18868;DHT22;9563;49.240;9.088;2023-06-22T16:38:22;28.30;99.90
18868;DHT22;9563;49.240;9.088;2023-06-22T16:40:48;28.20;99.90
18868;DHT22;9563;49.240;9.088;2023-06-22T16:43:16;28.10;99.90
18868;DHT22;9563;49.240;9.088;2023-06-22T16:45:43;28.10;99.90
18868;DHT22;9563;49.240;9.088;2023-06-22T16:48:10;28.00;99.90
18868;DHT22;9563;49.240;9.088;2023-06-22T16:50:37;28.00;99.90
18868;DHT22;9563;49.240;9.088;2023-06-22T16:53:04;27.90;99.90
18868;DHT22;9563;49.240;9.088;2023-06-22T16:55:33;27.90;99.90
18868;DHT22;9563;49.240;9.088;2023-06-22T16:58:00;27.80;99.90
18868;DHT22;9563;49.240;9.088;2023-06-22T17:00:28;27.80;99.90
18868;DHT22;9563;49.240;9.088;2023-06-22T17:02:57;27.80;99.90
18868;DHT22;9563;49.240;9.088;2023-06-22T17:05:26;27.70;99.90
18868;DHT22;9563;49.240;9.088;2023-06-22T17:07:56;27.80;99.90
18868;DHT22;9563;49.240;9.088;2023-06-22T17:10:24;27.90;99.90
18868;DHT22;9563;49.240;9.088;2023-06-22T17:12:52;28.00;99.90
18868;DHT22;9563;49.240;9.088;2023-06-22T17:15:20;28.10;99.90
18868;DHT22;9563;49.240;9.088;2023-06-22T17:17:48;28.20;99.90
18868;DHT22;9563;49.240;9.088;2023-06-22T17:20:16;28.20;99.90
18868;DHT22;9563;49.240;9.088;2023-06-22T17:22:43;28.30;99.90
18868;DHT22;9563;49.240;9.088;2023-06-22T17:25:12;28.40;99.90
18868;DHT22;9563;49.240;9.088;2023-06-22T17:27:40;28.40;99.90
18868;DHT22;9563;49.240;9.088;2023-06-22T17:30:10;28.50;99.90
18868;DHT22;9563;49.240;9.088;2023-06-22T17:32:39;28.50;99.90
18868;DHT22;9563;49.240;9.088;2023-06-22T17:35:08;28.50;99.90
18868;DHT22;9563;49.240;9.088;2023-06-22T17:37:47;28.40;99.90
18868;DHT22;9563;49.240;9.088;2023-06-22T17:40:16;28.30;99.90
18868;DHT22;9563;49.240;9.088;2023-06-22T17:42:43;28.20;99.90
18868;DHT22;9563;49.240;9.088;2023-06-22T17:45:27;28.10;99.90
18868;DHT22;9563;49.240;9.088;2023-06-22T17:47:54;27.90;99.90
18868;DHT22;9563;49.240;9.088;2023-06-22T17:50:22;27.90;99.90
18868;DHT22;9563;49.240;9.088;2023-06-22T17:52:50;27.80;99.90
18868;DHT22;9563;49.240;9.088;2023-06-22T17:55:20;27.70;99.90
18868;DHT22;9563;49.240;9.088;2023-06-22T17:57:49;27.60;99.90
18868;DHT22;9563;49.240;9.088;2023-06-22T18:00:21;27.60;99.90
18868;DHT22;9563;49.240;9.088;2023-06-22T18:02:49;27.50;99.90
18868;DHT22;9563;49.240;9.088;2023-06-22T18:05:17;27.40;99.90
18868;DHT22;9563;49.240;9.088;2023-06-22T18:07:44;27.30;99.90
18868;DHT22;9563;49.240;9.088;2023-06-22T18:10:12;27.30;99.90
18868;DHT22;9563;49.240;9.088;2023-06-22T18:12:39;27.20;99.90
18868;DHT22;9563;49.240;9.088;2023-06-22T18:15:07;27.10;99.90
18868;DHT22;9563;49.240;9.088;2023-06-22T18:17:36;27.00;99.90
18868;DHT22;9563;49.240;9.088;2023-06-22T18:20:06;27.00;99.90
18868;DHT22;9563;49.240;9.088;2023-06-22T18:22:36;26.90;99.90
18868;DHT22;9563;49.240;9.088;2023-06-22T18:25:04;26.80;99.90
18868;DHT22;9563;49.240;9.088;2023-06-22T18:27:32;26.70;99.90
18868;DHT22;9563;49.240;9.088;2023-06-22T18:30:02;26.70;99.90
18868;DHT22;9563;49.240;9.088;2023-06-22T18:32:30;26.60;99.90
18868;DHT22;9563;49.240;9.088;2023-06-22T18:34:58;26.50;99.90
18868;DHT22;9563;49.240;9.088;2023-06-22T18:37:30;26.50;99.90
18868;DHT22;9563;49.240;9.088;2023-06-22T18:39:58;26.40;99.90
18868;DHT22;9563;49.240;9.088;2023-06-22T18:42:27;26.40;99.90
18868;DHT22;9563;49.240;9.088;2023-06-22T18:44:55;26.30;99.90
18868;DHT22;9563;49.240;9.088;2023-06-22T18:47:26;26.30;99.90
18868;DHT22;9563;49.240;9.088;2023-06-22T18:50:02;26.30;99.90
18868;DHT22;9563;49.240;9.088;2023-06-22T18:52:32;26.20;99.90
18868;DHT22;9563;49.240;9.088;2023-06-22T18:55:01;26.10;99.90
18868;DHT22;9563;49.240;9.088;2023-06-22T18:57:29;26.00;99.90
18868;DHT22;9563;49.240;9.088;2023-06-22T19:00:01;26.00;99.90
18868;DHT22;9563;49.240;9.088;2023-06-22T19:02:40;25.90;99.90
18868;DHT22;9563;49.240;9.088;2023-06-22T19:05:08;25.80;99.90
18868;DHT22;9563;49.240;9.088;2023-06-22T19:07:59;25.80;99.90
18868;DHT22;9563;49.240;9.088;2023-06-22T19:10:29;25.80;99.90
18868;DHT22;9563;49.240;9.088;2023-06-22T19:12:58;25.80;99.90
18868;DHT22;9563;49.240;9.088;2023-06-22T19:15:44;25.70;99.90
18868;DHT22;9563;49.240;9.088;2023-06-22T19:18:16;25.60;99.90
18868;DHT22;9563;49.240;9.088;2023-06-22T19:20:46;25.60;99.90
18868;DHT22;9563;49.240;9.088;2023-06-22T19:23:25;25.50;99.90
18868;DHT22;9563;49.240;9.088;2023-06-22T19:25:55;25.50;99.90
18868;DHT22;9563;49.240;9.088;2023-06-22T19:28:23;25.40;99.90
18868;DHT22;9563;49.240;9.088;2023-06-22T19:30:53;25.40;99.90
18868;DHT22;9563;49.240;9.088;2023-06-22T19:33:21;25.30;99.90
18868;DHT22;9563;49.240;9.088;2023-06-22T19:35:48;25.30;99.90
18868;DHT22;9563;49.240;9.088;2023-06-22T19:38:15;25.20;99.90
18868;DHT22;9563;49.240;9.088;2023-06-22T19:40:45;25.20;99.90
18868;DHT22;9563;49.240;9.088;2023-06-22T19:43:12;25.10;99.90
18868;DHT22;9563;49.240;9.088;2023-06-22T19:45:40;25.00;99.90
18868;DHT22;9563;49.240;9.088;2023-06-22T19:48:08;25.00;99.90